Accueil
METAR-TAF:

METAR-TAF

Aéroports :

Sion, Suisse

Aéroport de Sion

latitude: 46-13N, longitude: 007-20E, altitude: 482 m

Observation

Le bulletin a été fait il y a 13 minutes, à 00:20 UTC
Vent 3 kt de est/nord-est
Température 14°C
Humidité 72%
Pression 1020 hPa
Visibilité 10 km ou plus
pas de nuages en-dessous de 1500 mètres et pas de cumulonimbus.

METAR: LSGS 240020Z AUTO 07003KT CAVOK 14/09 Q1020

Heure: 02:33 (00:33 UTC)

Prévision

Le bulletin a été fait il y a 10 heures et 8 minutes, à 14:25 UTC
Prévision valable du 23 à 15 UTC au 23 à 24 UTC
Vent 3 kt de direction variable
Visibilité 10 km ou plus
Nuages épars à une hauteur de 10000 ft
Nuages épars à une hauteur de 20000 ft

TAF: LSGS 231425Z 2315/2324 VRB03KT 9999 SCT100 SCT200

Observations et prévisions météorologiques de plus de 4000 aéroports (messages METAR et TAF).

Les stations disponibles sont représentées par des disques jaunes et rouges sur la carte.

Passer la souris dessus pour voir le nom de la station.

Cliquer dessus pour voir les observations et prévisions météorologiques.

Pour changer de carte: cliquez sur les boutons verts avec une croix noire pour zoomer, sur le bouton vert avec un tiret pour effectuer un zoom arrière, ou sur les flèches vertes pour les cartes adjacentes.


METAR-TAF: